sensor_id;sensor_type;location;lat;lon;timestamp;P1;durP1;ratioP1;P2;durP2;ratioP2
5702;SDS011;2876;51.738;10.050;2022-07-23T00:03:13;7.97;;;6.10;;
5702;SDS011;2876;51.738;10.050;2022-07-23T00:09:15;16.97;;;7.20;;
5702;SDS011;2876;51.738;10.050;2022-07-23T00:15:17;8.17;;;7.27;;
5702;SDS011;2876;51.738;10.050;2022-07-23T00:21:19;9.47;;;7.27;;
5702;SDS011;2876;51.738;10.050;2022-07-23T00:27:22;11.03;;;7.60;;
5702;SDS011;2876;51.738;10.050;2022-07-23T00:33:24;12.47;;;7.97;;
5702;SDS011;2876;51.738;10.050;2022-07-23T00:39:26;10.03;;;7.10;;
5702;SDS011;2876;51.738;10.050;2022-07-23T00:45:29;12.00;;;7.93;;
5702;SDS011;2876;51.738;10.050;2022-07-23T00:51:31;14.47;;;8.70;;
5702;SDS011;2876;51.738;10.050;2022-07-23T00:57:34;11.23;;;9.00;;
5702;SDS011;2876;51.738;10.050;2022-07-23T01:03:37;8.73;;;7.63;;
5702;SDS011;2876;51.738;10.050;2022-07-23T01:09:39;10.27;;;7.90;;
5702;SDS011;2876;51.738;10.050;2022-07-23T01:15:42;9.67;;;7.70;;
5702;SDS011;2876;51.738;10.050;2022-07-23T01:21:47;13.00;;;7.67;;
5702;SDS011;2876;51.738;10.050;2022-07-23T01:27:52;9.27;;;7.63;;
5702;SDS011;2876;51.738;10.050;2022-07-23T01:33:55;9.13;;;7.80;;
5702;SDS011;2876;51.738;10.050;2022-07-23T01:40:00;8.50;;;7.30;;
5702;SDS011;2876;51.738;10.050;2022-07-23T01:46:03;13.77;;;8.97;;
5702;SDS011;2876;51.738;10.050;2022-07-23T01:52:05;15.00;;;9.80;;
5702;SDS011;2876;51.738;10.050;2022-07-23T01:58:11;15.23;;;8.37;;
5702;SDS011;2876;51.738;10.050;2022-07-23T02:04:13;10.73;;;8.50;;
5702;SDS011;2876;51.738;10.050;2022-07-23T02:10:15;9.87;;;8.17;;
5702;SDS011;2876;51.738;10.050;2022-07-23T02:16:18;10.27;;;8.17;;
5702;SDS011;2876;51.738;10.050;2022-07-23T02:22:20;10.67;;;7.90;;
5702;SDS011;2876;51.738;10.050;2022-07-23T02:28:22;10.73;;;8.33;;
5702;SDS011;2876;51.738;10.050;2022-07-23T02:34:24;13.80;;;8.70;;
5702;SDS011;2876;51.738;10.050;2022-07-23T02:40:26;12.73;;;9.20;;
5702;SDS011;2876;51.738;10.050;2022-07-23T02:46:28;14.00;;;9.70;;
5702;SDS011;2876;51.738;10.050;2022-07-23T02:52:30;16.23;;;10.63;;
5702;SDS011;2876;51.738;10.050;2022-07-23T02:58:33;13.10;;;10.47;;
5702;SDS011;2876;51.738;10.050;2022-07-23T03:04:35;14.73;;;9.80;;
5702;SDS011;2876;51.738;10.050;2022-07-23T03:10:38;13.47;;;10.67;;
5702;SDS011;2876;51.738;10.050;2022-07-23T03:16:40;10.87;;;9.67;;
5702;SDS011;2876;51.738;10.050;2022-07-23T03:22:42;11.63;;;10.13;;
5702;SDS011;2876;51.738;10.050;2022-07-23T03:28:44;19.33;;;12.17;;
5702;SDS011;2876;51.738;10.050;2022-07-23T03:34:46;18.43;;;10.30;;
5702;SDS011;2876;51.738;10.050;2022-07-23T03:40:49;12.37;;;9.87;;
5702;SDS011;2876;51.738;10.050;2022-07-23T03:46:51;21.93;;;10.17;;
5702;SDS011;2876;51.738;10.050;2022-07-23T03:52:53;15.93;;;11.60;;
5702;SDS011;2876;51.738;10.050;2022-07-23T03:58:55;13.80;;;10.57;;
5702;SDS011;2876;51.738;10.050;2022-07-23T04:04:58;15.30;;;9.80;;
5702;SDS011;2876;51.738;10.050;2022-07-23T04:11:01;14.90;;;9.57;;
5702;SDS011;2876;51.738;10.050;2022-07-23T04:17:03;12.13;;;9.27;;
5702;SDS011;2876;51.738;10.050;2022-07-23T04:23:05;15.07;;;10.17;;
5702;SDS011;2876;51.738;10.050;2022-07-23T04:29:07;16.30;;;9.90;;
5702;SDS011;2876;51.738;10.050;2022-07-23T04:35:09;18.73;;;9.53;;
5702;SDS011;2876;51.738;10.050;2022-07-23T04:41:11;13.97;;;9.73;;
5702;SDS011;2876;51.738;10.050;2022-07-23T04:47:13;12.60;;;8.20;;
5702;SDS011;2876;51.738;10.050;2022-07-23T04:53:16;12.23;;;8.80;;
5702;SDS011;2876;51.738;10.050;2022-07-23T04:59:19;10.93;;;8.93;;
5702;SDS011;2876;51.738;10.050;2022-07-23T05:05:21;13.37;;;9.80;;
5702;SDS011;2876;51.738;10.050;2022-07-23T05:11:23;17.07;;;8.57;;
5702;SDS011;2876;51.738;10.050;2022-07-23T05:17:27;12.23;;;8.90;;
5702;SDS011;2876;51.738;10.050;2022-07-23T05:23:29;16.60;;;9.83;;
5702;SDS011;2876;51.738;10.050;2022-07-23T05:29:31;14.93;;;9.40;;
5702;SDS011;2876;51.738;10.050;2022-07-23T05:35:33;19.40;;;9.97;;
5702;SDS011;2876;51.738;10.050;2022-07-23T05:41:35;18.90;;;9.10;;
5702;SDS011;2876;51.738;10.050;2022-07-23T05:47:45;18.27;;;9.53;;
5702;SDS011;2876;51.738;10.050;2022-07-23T06:00:46;15.03;;;8.90;;
5702;SDS011;2876;51.738;10.050;2022-07-23T06:06:48;13.43;;;10.40;;
5702;SDS011;2876;51.738;10.050;2022-07-23T06:12:51;17.90;;;9.60;;
5702;SDS011;2876;51.738;10.050;2022-07-23T06:18:55;14.03;;;9.60;;
5702;SDS011;2876;51.738;10.050;2022-07-23T06:24:57;14.70;;;9.20;;
5702;SDS011;2876;51.738;10.050;2022-07-23T06:30:59;16.63;;;10.83;;
5702;SDS011;2876;51.738;10.050;2022-07-23T06:37:02;12.83;;;9.23;;
5702;SDS011;2876;51.738;10.050;2022-07-23T06:43:04;16.87;;;9.60;;
5702;SDS011;2876;51.738;10.050;2022-07-23T06:49:07;12.83;;;9.73;;
5702;SDS011;2876;51.738;10.050;2022-07-23T06:55:09;14.73;;;10.13;;
5702;SDS011;2876;51.738;10.050;2022-07-23T07:01:11;16.07;;;10.37;;
5702;SDS011;2876;51.738;10.050;2022-07-23T07:07:14;12.00;;;9.50;;
5702;SDS011;2876;51.738;10.050;2022-07-23T07:13:16;12.70;;;8.13;;
5702;SDS011;2876;51.738;10.050;2022-07-23T07:19:18;12.37;;;8.43;;
5702;SDS011;2876;51.738;10.050;2022-07-23T07:25:20;14.53;;;9.47;;
5702;SDS011;2876;51.738;10.050;2022-07-23T07:31:22;11.20;;;6.70;;
5702;SDS011;2876;51.738;10.050;2022-07-23T07:37:24;14.63;;;7.33;;
5702;SDS011;2876;51.738;10.050;2022-07-23T07:43:26;9.53;;;7.63;;
5702;SDS011;2876;51.738;10.050;2022-07-23T07:49:28;9.43;;;6.13;;
5702;SDS011;2876;51.738;10.050;2022-07-23T07:55:35;8.03;;;5.20;;
5702;SDS011;2876;51.738;10.050;2022-07-23T08:01:38;7.87;;;6.00;;
5702;SDS011;2876;51.738;10.050;2022-07-23T08:07:40;10.80;;;7.03;;
5702;SDS011;2876;51.738;10.050;2022-07-23T08:13:43;6.47;;;5.87;;
5702;SDS011;2876;51.738;10.050;2022-07-23T08:19:48;9.43;;;6.87;;
5702;SDS011;2876;51.738;10.050;2022-07-23T08:25:50;9.80;;;6.50;;
5702;SDS011;2876;51.738;10.050;2022-07-23T08:31:52;6.50;;;4.93;;
5702;SDS011;2876;51.738;10.050;2022-07-23T08:37:54;7.17;;;4.77;;
5702;SDS011;2876;51.738;10.050;2022-07-23T08:43:58;6.17;;;4.93;;
5702;SDS011;2876;51.738;10.050;2022-07-23T08:50:02;6.53;;;4.00;;
5702;SDS011;2876;51.738;10.050;2022-07-23T08:56:07;5.40;;;3.67;;
5702;SDS011;2876;51.738;10.050;2022-07-23T09:02:10;5.63;;;3.47;;
5702;SDS011;2876;51.738;10.050;2022-07-23T09:08:14;8.53;;;4.50;;
5702;SDS011;2876;51.738;10.050;2022-07-23T09:14:35;9.67;;;4.00;;
5702;SDS011;2876;51.738;10.050;2022-07-23T09:20:45;3.80;;;3.37;;
5702;SDS011;2876;51.738;10.050;2022-07-23T09:26:47;9.63;;;5.10;;
5702;SDS011;2876;51.738;10.050;2022-07-23T09:33:10;6.27;;;3.93;;
5702;SDS011;2876;51.738;10.050;2022-07-23T09:39:24;6.37;;;3.00;;
5702;SDS011;2876;51.738;10.050;2022-07-23T09:45:34;6.33;;;3.70;;
5702;SDS011;2876;51.738;10.050;2022-07-23T09:57:50;4.53;;;2.70;;
5702;SDS011;2876;51.738;10.050;2022-07-23T10:03:55;6.30;;;3.10;;
5702;SDS011;2876;51.738;10.050;2022-07-23T10:09:57;3.67;;;2.37;;
5702;SDS011;2876;51.738;10.050;2022-07-23T10:16:01;4.03;;;2.83;;
5702;SDS011;2876;51.738;10.050;2022-07-23T10:28:29;3.57;;;2.50;;
5702;SDS011;2876;51.738;10.050;2022-07-23T10:35:02;5.97;;;3.40;;
5702;SDS011;2876;51.738;10.050;2022-07-23T10:47:40;3.37;;;2.70;;
5702;SDS011;2876;51.738;10.050;2022-07-23T11:06:19;3.30;;;2.20;;
5702;SDS011;2876;51.738;10.050;2022-07-23T11:19:12;11.20;;;2.40;;
5702;SDS011;2876;51.738;10.050;2022-07-23T11:24:57;2.50;;;1.90;;
5702;SDS011;2876;51.738;10.050;2022-07-23T11:30:59;3.70;;;2.20;;
5702;SDS011;2876;51.738;10.050;2022-07-23T11:37:39;4.80;;;1.57;;
5702;SDS011;2876;51.738;10.050;2022-07-23T11:43:41;1.93;;;1.73;;
5702;SDS011;2876;51.738;10.050;2022-07-23T11:50:00;2.60;;;1.93;;
5702;SDS011;2876;51.738;10.050;2022-07-23T11:56:07;2.40;;;2.10;;
5702;SDS011;2876;51.738;10.050;2022-07-23T12:02:11;2.50;;;1.90;;
5702;SDS011;2876;51.738;10.050;2022-07-23T12:08:14;1.83;;;1.73;;
5702;SDS011;2876;51.738;10.050;2022-07-23T12:14:16;3.53;;;1.93;;
5702;SDS011;2876;51.738;10.050;2022-07-23T12:20:21;2.07;;;1.93;;
5702;SDS011;2876;51.738;10.050;2022-07-23T12:26:28;5.07;;;2.10;;
5702;SDS011;2876;51.738;10.050;2022-07-23T12:32:30;2.63;;;2.27;;
5702;SDS011;2876;51.738;10.050;2022-07-23T12:38:39;2.33;;;2.10;;
5702;SDS011;2876;51.738;10.050;2022-07-23T12:45:08;2.23;;;1.63;;
5702;SDS011;2876;51.738;10.050;2022-07-23T12:51:15;2.57;;;1.77;;
5702;SDS011;2876;51.738;10.050;2022-07-23T12:57:46;3.37;;;2.10;;
5702;SDS011;2876;51.738;10.050;2022-07-23T13:10:13;4.33;;;1.97;;
5702;SDS011;2876;51.738;10.050;2022-07-23T13:16:15;2.83;;;2.00;;
5702;SDS011;2876;51.738;10.050;2022-07-23T13:22:21;4.70;;;2.00;;
5702;SDS011;2876;51.738;10.050;2022-07-23T13:28:24;2.03;;;1.60;;
5702;SDS011;2876;51.738;10.050;2022-07-23T13:34:27;3.37;;;2.23;;
5702;SDS011;2876;51.738;10.050;2022-07-23T13:40:30;2.40;;;2.07;;
5702;SDS011;2876;51.738;10.050;2022-07-23T13:46:32;1.87;;;1.60;;
5702;SDS011;2876;51.738;10.050;2022-07-23T13:52:35;2.30;;;1.80;;
5702;SDS011;2876;51.738;10.050;2022-07-23T13:58:37;2.90;;;1.63;;
5702;SDS011;2876;51.738;10.050;2022-07-23T14:04:41;1.90;;;1.77;;
5702;SDS011;2876;51.738;10.050;2022-07-23T14:10:44;1.53;;;1.37;;
5702;SDS011;2876;51.738;10.050;2022-07-23T14:16:46;1.53;;;1.43;;
5702;SDS011;2876;51.738;10.050;2022-07-23T14:22:48;2.37;;;1.70;;
5702;SDS011;2876;51.738;10.050;2022-07-23T14:28:51;3.27;;;1.80;;
5702;SDS011;2876;51.738;10.050;2022-07-23T14:34:53;5.50;;;1.50;;
5702;SDS011;2876;51.738;10.050;2022-07-23T14:40:59;2.40;;;1.57;;
5702;SDS011;2876;51.738;10.050;2022-07-23T14:47:01;6.77;;;5.03;;
5702;SDS011;2876;51.738;10.050;2022-07-23T14:53:05;3.83;;;2.57;;
5702;SDS011;2876;51.738;10.050;2022-07-23T14:59:08;4.00;;;1.53;;
5702;SDS011;2876;51.738;10.050;2022-07-23T15:05:10;2.37;;;1.70;;
5702;SDS011;2876;51.738;10.050;2022-07-23T15:11:12;10.00;;;8.00;;
5702;SDS011;2876;51.738;10.050;2022-07-23T15:17:15;4.10;;;3.20;;
5702;SDS011;2876;51.738;10.050;2022-07-23T15:23:17;2.20;;;1.63;;
5702;SDS011;2876;51.738;10.050;2022-07-23T15:29:20;4.80;;;3.90;;
5702;SDS011;2876;51.738;10.050;2022-07-23T15:35:22;4.53;;;3.60;;
5702;SDS011;2876;51.738;10.050;2022-07-23T15:41:24;3.23;;;2.40;;
5702;SDS011;2876;51.738;10.050;2022-07-23T15:47:27;1.70;;;1.57;;
5702;SDS011;2876;51.738;10.050;2022-07-23T15:53:29;2.57;;;1.53;;
5702;SDS011;2876;51.738;10.050;2022-07-23T15:59:37;1.53;;;1.43;;
5702;SDS011;2876;51.738;10.050;2022-07-23T16:05:43;1.83;;;1.40;;
5702;SDS011;2876;51.738;10.050;2022-07-23T16:11:46;2.20;;;1.80;;
5702;SDS011;2876;51.738;10.050;2022-07-23T16:17:48;3.57;;;1.67;;
5702;SDS011;2876;51.738;10.050;2022-07-23T16:23:51;3.73;;;1.63;;
5702;SDS011;2876;51.738;10.050;2022-07-23T16:29:53;3.50;;;1.63;;
5702;SDS011;2876;51.738;10.050;2022-07-23T16:35:55;7.70;;;1.57;;
5702;SDS011;2876;51.738;10.050;2022-07-23T16:41:58;1.50;;;1.40;;
5702;SDS011;2876;51.738;10.050;2022-07-23T16:48:00;1.40;;;1.30;;
5702;SDS011;2876;51.738;10.050;2022-07-23T16:54:02;1.90;;;1.60;;
5702;SDS011;2876;51.738;10.050;2022-07-23T17:00:05;1.67;;;1.50;;
5702;SDS011;2876;51.738;10.050;2022-07-23T17:06:10;2.10;;;1.40;;
5702;SDS011;2876;51.738;10.050;2022-07-23T17:12:12;2.30;;;1.60;;
5702;SDS011;2876;51.738;10.050;2022-07-23T17:18:14;7.57;;;2.07;;
5702;SDS011;2876;51.738;10.050;2022-07-23T17:24:16;2.13;;;1.57;;
5702;SDS011;2876;51.738;10.050;2022-07-23T17:30:21;2.70;;;1.20;;
5702;SDS011;2876;51.738;10.050;2022-07-23T17:36:23;1.37;;;1.27;;
5702;SDS011;2876;51.738;10.050;2022-07-23T17:42:26;4.00;;;1.80;;
5702;SDS011;2876;51.738;10.050;2022-07-23T17:48:28;1.50;;;1.40;;
5702;SDS011;2876;51.738;10.050;2022-07-23T17:54:31;4.70;;;1.60;;
5702;SDS011;2876;51.738;10.050;2022-07-23T18:00:34;2.03;;;1.27;;
5702;SDS011;2876;51.738;10.050;2022-07-23T18:06:38;1.20;;;1.10;;
5702;SDS011;2876;51.738;10.050;2022-07-23T18:12:43;1.40;;;1.27;;
5702;SDS011;2876;51.738;10.050;2022-07-23T18:18:45;1.60;;;1.37;;
5702;SDS011;2876;51.738;10.050;2022-07-23T18:24:48;2.23;;;1.37;;
5702;SDS011;2876;51.738;10.050;2022-07-23T18:30:50;2.97;;;1.20;;
5702;SDS011;2876;51.738;10.050;2022-07-23T18:36:52;2.10;;;1.30;;
5702;SDS011;2876;51.738;10.050;2022-07-23T18:42:54;5.53;;;1.30;;
5702;SDS011;2876;51.738;10.050;2022-07-23T18:48:58;3.30;;;1.20;;
5702;SDS011;2876;51.738;10.050;2022-07-23T18:55:00;2.80;;;1.40;;
5702;SDS011;2876;51.738;10.050;2022-07-23T19:01:03;6.93;;;1.27;;
5702;SDS011;2876;51.738;10.050;2022-07-23T19:07:06;3.80;;;1.70;;
5702;SDS011;2876;51.738;10.050;2022-07-23T19:13:08;1.50;;;1.40;;
5702;SDS011;2876;51.738;10.050;2022-07-23T19:19:10;12.40;;;1.90;;
5702;SDS011;2876;51.738;10.050;2022-07-23T19:25:12;1.63;;;1.53;;
5702;SDS011;2876;51.738;10.050;2022-07-23T19:31:15;4.80;;;1.77;;
5702;SDS011;2876;51.738;10.050;2022-07-23T19:37:19;1.30;;;1.20;;
5702;SDS011;2876;51.738;10.050;2022-07-23T19:43:22;2.13;;;1.60;;
5702;SDS011;2876;51.738;10.050;2022-07-23T19:49:24;2.13;;;1.60;;
5702;SDS011;2876;51.738;10.050;2022-07-23T19:55:26;1.50;;;1.40;;
5702;SDS011;2876;51.738;10.050;2022-07-23T20:01:28;2.30;;;1.53;;
5702;SDS011;2876;51.738;10.050;2022-07-23T20:07:32;1.63;;;1.53;;
5702;SDS011;2876;51.738;10.050;2022-07-23T20:13:34;1.67;;;1.57;;
5702;SDS011;2876;51.738;10.050;2022-07-23T20:19:36;2.93;;;1.70;;
5702;SDS011;2876;51.738;10.050;2022-07-23T20:25:38;6.53;;;1.67;;
5702;SDS011;2876;51.738;10.050;2022-07-23T20:31:40;1.13;;;1.03;;
5702;SDS011;2876;51.738;10.050;2022-07-23T20:37:43;5.63;;;1.70;;
5702;SDS011;2876;51.738;10.050;2022-07-23T20:43:45;1.93;;;1.70;;
5702;SDS011;2876;51.738;10.050;2022-07-23T20:49:47;4.23;;;3.07;;
5702;SDS011;2876;51.738;10.050;2022-07-23T20:55:49;4.53;;;1.90;;
5702;SDS011;2876;51.738;10.050;2022-07-23T21:01:51;2.20;;;2.00;;
5702;SDS011;2876;51.738;10.050;2022-07-23T21:07:53;1.57;;;1.37;;
5702;SDS011;2876;51.738;10.050;2022-07-23T21:13:56;1.63;;;1.47;;
5702;SDS011;2876;51.738;10.050;2022-07-23T21:19:58;2.80;;;1.50;;
5702;SDS011;2876;51.738;10.050;2022-07-23T21:26:00;3.50;;;2.50;;
5702;SDS011;2876;51.738;10.050;2022-07-23T21:32:22;3.17;;;1.93;;
5702;SDS011;2876;51.738;10.050;2022-07-23T21:38:26;2.50;;;1.90;;
5702;SDS011;2876;51.738;10.050;2022-07-23T21:44:28;1.53;;;1.43;;
5702;SDS011;2876;51.738;10.050;2022-07-23T21:50:30;16.47;;;1.60;;
5702;SDS011;2876;51.738;10.050;2022-07-23T21:56:33;1.43;;;1.33;;
5702;SDS011;2876;51.738;10.050;2022-07-23T22:02:35;2.97;;;1.43;;
5702;SDS011;2876;51.738;10.050;2022-07-23T22:08:37;1.50;;;1.40;;
5702;SDS011;2876;51.738;10.050;2022-07-23T22:14:39;1.40;;;1.30;;
5702;SDS011;2876;51.738;10.050;2022-07-23T22:20:41;3.53;;;1.40;;
5702;SDS011;2876;51.738;10.050;2022-07-23T22:26:49;1.50;;;1.40;;
5702;SDS011;2876;51.738;10.050;2022-07-23T22:32:51;2.00;;;1.40;;
5702;SDS011;2876;51.738;10.050;2022-07-23T22:38:53;4.10;;;1.37;;
5702;SDS011;2876;51.738;10.050;2022-07-23T22:44:56;1.67;;;1.57;;
5702;SDS011;2876;51.738;10.050;2022-07-23T22:50:58;1.77;;;1.40;;
5702;SDS011;2876;51.738;10.050;2022-07-23T22:57:00;1.90;;;1.30;;
5702;SDS011;2876;51.738;10.050;2022-07-23T23:03:03;1.57;;;1.47;;
5702;SDS011;2876;51.738;10.050;2022-07-23T23:09:05;1.83;;;1.73;;
5702;SDS011;2876;51.738;10.050;2022-07-23T23:15:08;1.33;;;1.20;;
5702;SDS011;2876;51.738;10.050;2022-07-23T23:21:11;5.33;;;1.60;;
5702;SDS011;2876;51.738;10.050;2022-07-23T23:27:13;3.47;;;1.60;;
5702;SDS011;2876;51.738;10.050;2022-07-23T23:33:15;2.37;;;2.10;;
5702;SDS011;2876;51.738;10.050;2022-07-23T23:39:19;2.80;;;1.70;;
5702;SDS011;2876;51.738;10.050;2022-07-23T23:45:24;1.87;;;1.60;;
5702;SDS011;2876;51.738;10.050;2022-07-23T23:51:26;6.13;;;1.70;;
5702;SDS011;2876;51.738;10.050;2022-07-23T23:57:28;2.97;;;1.73;;
